createdAt,value
2019-03-29T00:01:15.984Z,1029.33
2019-03-29T00:02:16.367Z,1029.3
2019-03-29T00:03:16.024Z,1029.28
2019-03-29T00:04:16.094Z,1029.25
2019-03-29T00:05:16.057Z,1029.25
2019-03-29T00:06:16.080Z,1029.25
2019-03-29T00:07:16.096Z,1029.18
2019-03-29T00:08:16.117Z,1029.27
2019-03-29T00:09:16.131Z,1029.2
2019-03-29T00:10:16.164Z,1029.24
2019-03-29T00:11:16.173Z,1029.23
2019-03-29T00:12:16.187Z,1029.23
2019-03-29T00:13:16.206Z,1029.19
2019-03-29T00:14:16.224Z,1029.18
2019-03-29T00:15:16.249Z,1029.22
2019-03-29T00:17:16.283Z,1029.25
2019-03-29T00:18:16.404Z,1029.23
2019-03-29T00:19:16.319Z,1029.24
2019-03-29T00:20:16.334Z,1029.24
2019-03-29T00:21:16.355Z,1029.19
2019-03-29T00:22:16.376Z,1029.21
2019-03-29T00:23:16.395Z,1029.21
2019-03-29T00:24:16.412Z,1029.19
2019-03-29T00:25:16.426Z,1029.22
2019-03-29T00:26:16.451Z,1029.21
2019-03-29T00:27:16.463Z,1029.18
2019-03-29T00:28:16.483Z,1029.18
2019-03-29T00:29:16.500Z,1029.17
2019-03-29T00:30:16.519Z,1029.21
2019-03-29T00:32:16.556Z,1029.18
2019-03-29T00:33:16.580Z,1029.15
2019-03-29T00:34:16.593Z,1029.13
2019-03-29T00:35:16.617Z,1029.13
2019-03-29T00:36:16.636Z,1029.12
2019-03-29T00:37:17.299Z,1029.13
2019-03-29T00:38:16.668Z,1029.07
2019-03-29T00:39:16.690Z,1029.14
2019-03-29T00:40:16.703Z,1029.09
2019-03-29T00:41:16.727Z,1029.1
2019-03-29T00:42:17.100Z,1029.09
2019-03-29T00:43:16.865Z,1029.15
2019-03-29T00:44:16.780Z,1029.14
2019-03-29T00:45:16.801Z,1029.11
2019-03-29T00:46:16.815Z,1029.14
2019-03-29T00:47:16.839Z,1029.12
2019-03-29T00:48:16.857Z,1029.09
2019-03-29T00:49:16.872Z,1029.05
2019-03-29T00:50:16.897Z,1028.98
2019-03-29T00:51:16.909Z,1029
2019-03-29T00:52:16.948Z,1029
2019-03-29T00:53:16.945Z,1029.01
2019-03-29T00:54:16.968Z,1029.07
2019-03-29T00:55:16.981Z,1029.08
2019-03-29T00:56:17.004Z,1029.06
2019-03-29T00:57:17.018Z,1029.01
2019-03-29T00:58:17.038Z,1029.05
2019-03-29T00:59:17.060Z,1029.01
2019-03-29T01:00:17.079Z,1028.98
2019-03-29T01:01:17.092Z,1028.93
2019-03-29T01:02:17.117Z,1028.9
2019-03-29T01:04:17.154Z,1028.86
2019-03-29T01:05:17.171Z,1028.87
2019-03-29T01:06:17.185Z,1028.84
2019-03-29T01:07:17.203Z,1028.86
2019-03-29T01:08:17.223Z,1028.84
2019-03-29T01:09:17.246Z,1028.83
2019-03-29T01:10:17.259Z,1028.81
2019-03-29T01:11:17.281Z,1028.81
2019-03-29T01:12:17.296Z,1028.81
2019-03-29T01:13:17.318Z,1028.77
2019-03-29T01:14:17.333Z,1028.77
2019-03-29T01:15:17.351Z,1028.76
2019-03-29T01:16:17.374Z,1028.79
2019-03-29T01:17:17.392Z,1028.77
2019-03-29T01:18:17.411Z,1028.8
2019-03-29T01:20:17.450Z,1028.77
2019-03-29T01:21:17.465Z,1028.75
2019-03-29T01:22:17.483Z,1028.77
2019-03-29T01:23:17.500Z,1028.77
2019-03-29T01:24:17.533Z,1028.78
2019-03-29T01:25:17.540Z,1028.81
2019-03-29T01:26:17.556Z,1028.8
2019-03-29T01:27:17.872Z,1028.77
2019-03-29T01:28:17.596Z,1028.78
2019-03-29T01:29:17.610Z,1028.76
2019-03-29T01:30:17.633Z,1028.77
2019-03-29T01:31:17.648Z,1028.75
2019-03-29T01:32:17.665Z,1028.77
2019-03-29T01:33:17.686Z,1028.74
2019-03-29T01:34:17.708Z,1028.74
2019-03-29T01:36:17.740Z,1028.69
2019-03-29T01:37:17.767Z,1028.74
2019-03-29T01:38:21.953Z,1028.72
2019-03-29T01:39:17.800Z,1028.72
2019-03-29T01:40:17.814Z,1028.68
2019-03-29T01:41:17.837Z,1028.7
2019-03-29T01:42:18.305Z,1028.71
2019-03-29T01:43:17.874Z,1028.74
2019-03-29T01:44:17.888Z,1028.72
2019-03-29T01:45:17.907Z,1028.7
2019-03-29T01:46:17.930Z,1028.75
2019-03-29T01:47:17.945Z,1028.73
2019-03-29T01:48:17.970Z,1028.71
2019-03-29T01:49:17.981Z,1028.73
2019-03-29T01:50:18.006Z,1028.72
2019-03-29T01:52:18.037Z,1028.66
2019-03-29T01:53:18.059Z,1028.69
2019-03-29T01:54:18.073Z,1028.68
2019-03-29T01:55:18.098Z,1028.68
2019-03-29T01:56:18.115Z,1028.7
2019-03-29T01:57:18.129Z,1028.72
2019-03-29T01:58:18.151Z,1028.71
2019-03-29T01:59:18.173Z,1028.73
2019-03-29T02:00:18.204Z,1028.73
2019-03-29T02:01:18.276Z,1028.73
2019-03-29T02:02:18.221Z,1028.75
2019-03-29T02:03:18.245Z,1028.71
2019-03-29T02:04:18.259Z,1028.69
2019-03-29T02:05:18.282Z,1028.68
2019-03-29T02:07:18.316Z,1028.62
2019-03-29T02:08:18.338Z,1028.64
2019-03-29T02:09:18.352Z,1028.62
2019-03-29T02:10:18.375Z,1028.64
2019-03-29T02:11:18.389Z,1028.65
2019-03-29T02:12:18.416Z,1028.68
2019-03-29T02:13:18.464Z,1028.63
2019-03-29T02:14:18.447Z,1028.64
2019-03-29T02:15:18.468Z,1028.57
2019-03-29T02:16:18.483Z,1028.54
2019-03-29T02:17:18.505Z,1028.61
2019-03-29T02:18:18.521Z,1028.58
2019-03-29T02:19:18.541Z,1028.61
2019-03-29T02:20:18.561Z,1028.57
2019-03-29T02:21:18.574Z,1028.58
2019-03-29T02:22:18.597Z,1028.6
2019-03-29T02:23:18.616Z,1028.56
2019-03-29T02:24:18.630Z,1028.59
2019-03-29T02:25:18.653Z,1028.53
2019-03-29T02:26:18.667Z,1028.54
2019-03-29T02:27:18.692Z,1028.51
2019-03-29T02:28:18.980Z,1028.49
2019-03-29T02:29:18.727Z,1028.53
2019-03-29T02:30:18.745Z,1028.5
2019-03-29T02:31:18.765Z,1028.45
2019-03-29T02:32:18.780Z,1028.49
2019-03-29T02:33:20.460Z,1028.49
2019-03-29T02:34:18.820Z,1028.47
2019-03-29T02:35:18.835Z,1028.49
2019-03-29T02:36:18.855Z,1028.46
2019-03-29T02:37:18.877Z,1028.43
2019-03-29T02:39:18.956Z,1028.49
2019-03-29T02:40:18.973Z,1028.48
2019-03-29T02:41:19.588Z,1028.5
2019-03-29T02:42:19.011Z,1028.51
2019-03-29T02:43:19.029Z,1028.52
2019-03-29T02:44:19.045Z,1028.56
2019-03-29T02:45:19.068Z,1028.55
2019-03-29T02:46:19.081Z,1028.54
2019-03-29T02:47:19.103Z,1028.52
2019-03-29T02:48:19.118Z,1028.56
2019-03-29T02:49:19.139Z,1028.56
2019-03-29T02:50:19.157Z,1028.52
2019-03-29T02:51:19.184Z,1028.55
2019-03-29T02:52:19.195Z,1028.54
2019-03-29T02:53:19.220Z,1028.51
2019-03-29T02:54:19.229Z,1028.53
2019-03-29T02:55:19.261Z,1028.52
2019-03-29T02:56:19.265Z,1028.58
2019-03-29T02:57:19.288Z,1028.56
2019-03-29T02:58:19.307Z,1028.54
2019-03-29T02:59:19.324Z,1028.54
2019-03-29T03:01:19.359Z,1028.52
2019-03-29T03:02:19.383Z,1028.54
2019-03-29T03:03:19.473Z,1028.49
2019-03-29T03:04:19.417Z,1028.5
2019-03-29T03:05:19.432Z,1028.47
2019-03-29T03:06:19.456Z,1028.5
2019-03-29T03:07:19.473Z,1028.47
2019-03-29T03:08:19.489Z,1028.49
2019-03-29T03:09:19.509Z,1028.53
2019-03-29T03:10:19.528Z,1028.5
2019-03-29T03:11:19.554Z,1028.53
2019-03-29T03:12:19.563Z,1028.5
2019-03-29T03:13:19.588Z,1028.53
2019-03-29T03:14:19.598Z,1028.47
2019-03-29T03:15:19.634Z,1028.48
2019-03-29T03:17:19.659Z,1028.49
2019-03-29T03:18:19.673Z,1028.53
2019-03-29T03:19:19.696Z,1028.47
2019-03-29T03:20:19.714Z,1028.56
2019-03-29T03:21:19.732Z,1028.52
2019-03-29T03:22:19.756Z,1028.51
2019-03-29T03:23:19.772Z,1028.49
2019-03-29T03:24:19.784Z,1028.53
2019-03-29T03:25:19.801Z,1028.54
2019-03-29T03:26:19.820Z,1028.53
2019-03-29T03:27:19.844Z,1028.53
2019-03-29T03:28:19.864Z,1028.53
2019-03-29T03:29:19.877Z,1028.54
2019-03-29T03:30:19.895Z,1028.52
2019-03-29T03:31:19.914Z,1028.55
2019-03-29T03:33:20.067Z,1028.57
2019-03-29T03:34:19.975Z,1028.56
2019-03-29T03:35:20.019Z,1028.55
2019-03-29T03:36:20.012Z,1028.58
2019-03-29T03:37:20.024Z,1028.57
2019-03-29T03:38:20.048Z,1028.6
2019-03-29T03:39:31.104Z,1028.59
2019-03-29T03:40:20.094Z,1028.59
2019-03-29T03:41:20.103Z,1028.61
2019-03-29T03:42:20.119Z,1028.56
2019-03-29T03:43:20.156Z,1028.55
2019-03-29T03:44:20.157Z,1028.55
2019-03-29T03:45:20.178Z,1028.51
2019-03-29T03:46:20.199Z,1028.57
2019-03-29T03:47:20.216Z,1028.55
2019-03-29T03:49:20.250Z,1028.55
2019-03-29T03:50:20.265Z,1028.59
2019-03-29T03:51:20.288Z,1028.55
2019-03-29T03:52:20.313Z,1028.58
2019-03-29T03:53:20.327Z,1028.59
2019-03-29T03:54:20.339Z,1028.63
2019-03-29T03:55:20.360Z,1028.62
2019-03-29T03:56:20.380Z,1028.66
2019-03-29T03:57:20.400Z,1028.6
2019-03-29T03:58:20.422Z,1028.66
2019-03-29T03:59:20.432Z,1028.64
2019-03-29T04:00:20.461Z,1028.64
2019-03-29T04:01:20.470Z,1028.66
2019-03-29T04:02:20.492Z,1028.67
2019-03-29T04:04:20.531Z,1028.64
2019-03-29T04:05:20.553Z,1028.62
2019-03-29T04:06:20.564Z,1028.65
2019-03-29T04:07:20.610Z,1028.65
2019-03-29T04:08:20.606Z,1028.65
2019-03-29T04:09:20.622Z,1028.65
2019-03-29T04:10:20.638Z,1028.65
2019-03-29T04:11:20.664Z,1028.68
2019-03-29T04:12:20.674Z,1028.65
2019-03-29T04:13:20.697Z,1028.69
2019-03-29T04:14:20.718Z,1028.67
2019-03-29T04:15:20.737Z,1028.69
2019-03-29T04:16:20.748Z,1028.7
2019-03-29T04:17:20.777Z,1028.68
2019-03-29T04:18:20.809Z,1028.71
2019-03-29T04:19:20.813Z,1028.74
2019-03-29T04:20:20.849Z,1028.72
2019-03-29T04:21:20.845Z,1028.74
2019-03-29T04:22:20.869Z,1028.73
2019-03-29T04:23:20.877Z,1028.73
2019-03-29T04:24:20.896Z,1028.71
2019-03-29T04:25:20.927Z,1028.7
2019-03-29T04:26:20.933Z,1028.69
2019-03-29T04:27:20.959Z,1028.71
2019-03-29T04:28:20.970Z,1028.68
2019-03-29T04:29:20.988Z,1028.7
2019-03-29T04:30:21.009Z,1028.71
2019-03-29T04:31:21.031Z,1028.68
2019-03-29T04:32:21.049Z,1028.72
2019-03-29T04:33:21.065Z,1028.72
2019-03-29T04:34:21.095Z,1028.7
2019-03-29T04:36:21.119Z,1028.66
2019-03-29T04:37:21.138Z,1028.66
2019-03-29T04:38:21.161Z,1028.67
2019-03-29T04:39:21.174Z,1028.65
2019-03-29T04:40:21.197Z,1028.64
2019-03-29T04:41:21.215Z,1028.62
2019-03-29T04:42:21.234Z,1028.61
2019-03-29T04:43:21.250Z,1028.66
2019-03-29T04:44:21.272Z,1028.65
2019-03-29T04:45:21.285Z,1028.65
2019-03-29T04:46:21.322Z,1028.64
2019-03-29T04:47:21.322Z,1028.66
2019-03-29T04:48:21.346Z,1028.67
2019-03-29T04:49:21.359Z,1028.65
2019-03-29T04:50:21.383Z,1028.62
2019-03-29T04:52:21.415Z,1028.67
2019-03-29T04:53:21.437Z,1028.71
2019-03-29T04:54:21.453Z,1028.72
2019-03-29T04:55:21.475Z,1028.7
2019-03-29T04:56:21.490Z,1028.66
2019-03-29T04:57:21.512Z,1028.65
2019-03-29T04:58:21.526Z,1028.64
2019-03-29T04:59:21.545Z,1028.61
2019-03-29T05:00:21.567Z,1028.6
2019-03-29T05:01:21.582Z,1028.56
2019-03-29T05:02:21.605Z,1028.6
2019-03-29T05:03:21.624Z,1028.59
2019-03-29T05:04:21.646Z,1028.6
2019-03-29T05:05:21.656Z,1028.62
2019-03-29T05:06:21.679Z,1028.61
2019-03-29T05:08:21.716Z,1028.6
2019-03-29T05:09:21.730Z,1028.57
2019-03-29T05:10:22.081Z,1028.6
2019-03-29T05:11:21.768Z,1028.56
2019-03-29T05:12:21.793Z,1028.61
2019-03-29T05:13:21.808Z,1028.53
2019-03-29T05:14:21.823Z,1028.55
2019-03-29T05:15:21.941Z,1028.56
2019-03-29T05:16:21.863Z,1028.57
2019-03-29T05:17:21.884Z,1028.54
2019-03-29T05:18:21.900Z,1028.57
2019-03-29T05:19:21.919Z,1028.56
2019-03-29T05:20:21.938Z,1028.54
2019-03-29T05:21:21.953Z,1028.58
2019-03-29T05:22:21.971Z,1028.56
2019-03-29T05:24:22.013Z,1028.6
2019-03-29T05:25:22.028Z,1028.63
2019-03-29T05:26:25.159Z,1028.63
2019-03-29T05:27:22.069Z,1028.61
2019-03-29T05:28:22.087Z,1028.62
2019-03-29T05:29:22.101Z,1028.65
2019-03-29T05:30:22.119Z,1028.68
2019-03-29T05:31:22.142Z,1028.65
2019-03-29T05:32:22.161Z,1028.68
2019-03-29T05:33:22.175Z,1028.66
2019-03-29T05:34:22.198Z,1028.66
2019-03-29T05:35:22.213Z,1028.66
2019-03-29T05:36:22.237Z,1028.69
2019-03-29T05:37:22.251Z,1028.72
2019-03-29T05:39:22.288Z,1028.74
2019-03-29T05:40:34.215Z,1028.75
2019-03-29T05:41:22.331Z,1028.73
2019-03-29T05:42:22.346Z,1028.74
2019-03-29T05:43:22.367Z,1028.74
2019-03-29T05:44:22.381Z,1028.74
2019-03-29T05:45:22.404Z,1028.77
2019-03-29T05:46:22.419Z,1028.77
2019-03-29T05:47:22.437Z,1028.77
2019-03-29T05:48:22.461Z,1028.82
2019-03-29T05:49:22.475Z,1028.79
2019-03-29T05:50:22.499Z,1028.8
2019-03-29T05:51:22.512Z,1028.76
2019-03-29T05:52:22.535Z,1028.73
2019-03-29T05:53:22.550Z,1028.72
2019-03-29T05:54:22.569Z,1028.75
2019-03-29T05:55:32.260Z,1028.74
2019-03-29T05:56:22.606Z,1028.77
2019-03-29T05:57:22.632Z,1028.77
2019-03-29T05:58:22.643Z,1028.73
2019-03-29T05:59:22.666Z,1028.76
2019-03-29T06:00:22.681Z,1028.76
2019-03-29T06:01:22.701Z,1028.77
2019-03-29T06:02:22.722Z,1028.76
2019-03-29T06:03:22.743Z,1028.79
2019-03-29T06:04:22.757Z,1028.75
2019-03-29T06:05:22.775Z,1028.79
2019-03-29T06:06:22.798Z,1028.77
2019-03-29T06:07:22.819Z,1028.76
2019-03-29T06:08:22.831Z,1028.75
2019-03-29T06:09:22.855Z,1028.76
2019-03-29T06:11:22.894Z,1028.76
2019-03-29T06:12:22.908Z,1028.72
2019-03-29T06:13:22.930Z,1028.72
2019-03-29T06:14:22.945Z,1028.73
2019-03-29T06:15:22.969Z,1028.75
2019-03-29T06:16:23.091Z,1028.73
2019-03-29T06:17:23.007Z,1028.74
2019-03-29T06:18:23.022Z,1028.74
2019-03-29T06:19:23.044Z,1028.71
2019-03-29T06:20:23.063Z,1028.73
2019-03-29T06:21:23.082Z,1028.71
2019-03-29T06:22:23.108Z,1028.72
2019-03-29T06:23:23.127Z,1028.7
2019-03-29T06:24:23.140Z,1028.69
2019-03-29T06:25:23.157Z,1028.7
2019-03-29T06:27:23.193Z,1028.67
2019-03-29T06:28:23.211Z,1028.65
2019-03-29T06:29:23.238Z,1028.65
2019-03-29T06:30:23.250Z,1028.64
2019-03-29T06:31:23.272Z,1028.66
2019-03-29T06:32:23.292Z,1028.66
2019-03-29T06:33:23.307Z,1028.7
2019-03-29T06:34:23.331Z,1028.67
2019-03-29T06:35:23.345Z,1028.67
2019-03-29T06:36:23.370Z,1028.68
2019-03-29T06:37:23.386Z,1028.66
2019-03-29T06:38:23.411Z,1028.67
2019-03-29T06:39:23.427Z,1028.66
2019-03-29T06:40:23.445Z,1028.68
2019-03-29T06:41:23.467Z,1028.65
2019-03-29T06:43:23.503Z,1028.61
2019-03-29T06:44:23.518Z,1028.62
2019-03-29T06:45:23.540Z,1028.64
2019-03-29T06:46:23.562Z,1028.66
2019-03-29T06:47:23.578Z,1028.62
2019-03-29T06:48:23.600Z,1028.62
2019-03-29T06:49:23.616Z,1028.63
2019-03-29T06:50:23.638Z,1028.62
2019-03-29T06:51:23.654Z,1028.59
2019-03-29T06:52:23.678Z,1028.6
2019-03-29T06:53:23.695Z,1028.64
2019-03-29T06:54:23.718Z,1028.61
2019-03-29T06:55:23.732Z,1028.6
2019-03-29T06:56:23.756Z,1028.6
2019-03-29T06:57:23.777Z,1028.59
2019-03-29T06:59:23.813Z,1028.6
2019-03-29T07:00:23.828Z,1028.59
2019-03-29T07:01:23.849Z,1028.59
2019-03-29T07:02:23.867Z,1028.59
2019-03-29T07:03:23.890Z,1028.64
2019-03-29T07:04:23.905Z,1028.6
2019-03-29T07:05:23.935Z,1028.61
2019-03-29T07:06:23.945Z,1028.58
2019-03-29T07:07:23.970Z,1028.64
2019-03-29T07:08:23.983Z,1028.62
2019-03-29T07:09:24.008Z,1028.6
2019-03-29T07:10:24.031Z,1028.66
2019-03-29T07:11:24.047Z,1028.64
2019-03-29T07:12:24.066Z,1028.68
2019-03-29T07:14:24.102Z,1028.67
2019-03-29T07:15:24.122Z,1028.64
2019-03-29T07:16:24.145Z,1028.67
2019-03-29T07:17:24.164Z,1028.69
2019-03-29T07:18:24.187Z,1028.7
2019-03-29T07:19:24.220Z,1028.73
2019-03-29T07:20:24.227Z,1028.72
2019-03-29T07:21:24.241Z,1028.73
2019-03-29T07:22:24.258Z,1028.73
2019-03-29T07:23:24.282Z,1028.73
2019-03-29T07:24:24.309Z,1028.76
2019-03-29T07:25:24.326Z,1028.7
2019-03-29T07:26:24.336Z,1028.79
2019-03-29T07:27:24.360Z,1028.74
2019-03-29T07:28:24.381Z,1028.77
2019-03-29T07:29:24.397Z,1028.76
2019-03-29T07:30:24.423Z,1028.77
2019-03-29T07:31:24.435Z,1028.8
2019-03-29T07:32:24.459Z,1028.78
2019-03-29T07:33:24.473Z,1028.73
2019-03-29T07:34:24.497Z,1028.76
2019-03-29T07:35:24.514Z,1028.77
2019-03-29T07:36:24.537Z,1028.76
2019-03-29T07:37:24.553Z,1028.77
2019-03-29T07:38:24.573Z,1028.78
2019-03-29T07:39:24.597Z,1028.78
2019-03-29T07:40:24.613Z,1028.78
2019-03-29T07:41:31.420Z,1028.77
2019-03-29T07:42:24.652Z,1028.77
2019-03-29T07:43:24.680Z,1028.8
2019-03-29T07:44:24.691Z,1028.77
2019-03-29T07:46:24.736Z,1028.77
2019-03-29T07:47:24.752Z,1028.79
2019-03-29T07:48:24.778Z,1028.82
2019-03-29T07:49:24.793Z,1028.82
2019-03-29T07:50:24.811Z,1028.78
2019-03-29T07:51:24.836Z,1028.82
2019-03-29T07:52:24.855Z,1028.82
2019-03-29T07:53:24.871Z,1028.79
2019-03-29T07:54:24.895Z,1028.83
2019-03-29T07:55:24.910Z,1028.81
2019-03-29T07:56:24.930Z,1028.77
2019-03-29T07:57:24.955Z,1028.81
2019-03-29T07:58:24.975Z,1028.82
2019-03-29T07:59:24.995Z,1028.8
2019-03-29T08:00:25.015Z,1028.78
2019-03-29T08:02:25.079Z,1028.71
2019-03-29T08:03:25.072Z,1028.72
2019-03-29T08:04:25.096Z,1028.72
2019-03-29T08:05:25.112Z,1028.74
2019-03-29T08:06:25.136Z,1028.74
2019-03-29T08:07:27.355Z,1028.7
2019-03-29T08:08:31.994Z,1028.71
2019-03-29T08:09:25.193Z,1028.71
2019-03-29T08:10:29.555Z,1028.7
2019-03-29T08:11:26.540Z,1028.65
2019-03-29T08:12:25.271Z,1028.66
2019-03-29T08:13:25.280Z,1028.65
2019-03-29T08:14:25.296Z,1028.66
2019-03-29T08:15:25.320Z,1028.67
2019-03-29T08:16:25.344Z,1028.65
2019-03-29T08:18:25.380Z,1028.62
2019-03-29T08:19:25.403Z,1028.65
2019-03-29T08:20:39.119Z,1028.64
2019-03-29T08:21:25.444Z,1028.61
2019-03-29T08:22:25.460Z,1028.63
2019-03-29T08:23:28.584Z,1028.65
2019-03-29T08:24:25.508Z,1028.65
2019-03-29T08:25:25.534Z,1028.7
2019-03-29T08:26:25.546Z,1028.69
2019-03-29T08:27:25.565Z,1028.68
2019-03-29T08:28:25.594Z,1028.68
2019-03-29T08:29:25.613Z,1028.68
2019-03-29T08:30:25.632Z,1028.71
2019-03-29T08:31:25.649Z,1028.73
2019-03-29T08:32:25.675Z,1028.73
2019-03-29T08:34:25.713Z,1028.68
2019-03-29T08:35:25.734Z,1028.69
2019-03-29T08:36:25.758Z,1028.7
2019-03-29T08:37:25.781Z,1028.7
2019-03-29T08:38:25.797Z,1028.71
2019-03-29T08:39:28.030Z,1028.72
2019-03-29T08:40:25.839Z,1028.75
2019-03-29T08:41:25.866Z,1028.74
2019-03-29T08:42:25.884Z,1028.76
2019-03-29T08:43:25.906Z,1028.75
2019-03-29T08:44:25.924Z,1028.77
2019-03-29T08:45:25.950Z,1028.81
2019-03-29T08:46:25.972Z,1028.79
2019-03-29T08:47:25.993Z,1028.74
2019-03-29T08:49:26.037Z,1028.76
2019-03-29T08:50:26.053Z,1028.78
2019-03-29T08:51:26.075Z,1028.74
2019-03-29T08:52:26.100Z,1028.76
2019-03-29T08:53:27.502Z,1028.77
2019-03-29T08:54:26.144Z,1028.79
2019-03-29T08:55:26.160Z,1028.76
2019-03-29T08:56:26.186Z,1028.74
2019-03-29T08:57:26.202Z,1028.72
2019-03-29T08:58:26.224Z,1028.71
2019-03-29T08:59:26.250Z,1028.74
2019-03-29T09:00:26.274Z,1028.71
2019-03-29T09:01:26.293Z,1028.7
2019-03-29T09:02:26.311Z,1028.69
2019-03-29T09:03:26.336Z,1028.66
2019-03-29T09:04:26.354Z,1028.64
2019-03-29T09:05:26.378Z,1028.63
2019-03-29T09:06:26.395Z,1028.63
2019-03-29T09:07:27.999Z,1028.68
2019-03-29T09:08:26.445Z,1028.67
2019-03-29T09:09:26.461Z,1028.63
2019-03-29T09:10:26.483Z,1028.63
2019-03-29T09:11:26.509Z,1028.65
2019-03-29T09:12:26.530Z,1028.67
2019-03-29T09:13:26.553Z,1028.68
2019-03-29T09:14:26.569Z,1028.66
2019-03-29T09:15:26.596Z,1028.65
2019-03-29T09:16:26.616Z,1028.65
2019-03-29T09:17:26.634Z,1028.6
2019-03-29T09:18:26.664Z,1028.63
2019-03-29T09:19:26.677Z,1028.63
2019-03-29T09:21:26.722Z,1028.6
2019-03-29T09:22:26.743Z,1028.62
2019-03-29T09:23:29.899Z,1028.63
2019-03-29T09:24:26.794Z,1028.61
2019-03-29T09:25:26.812Z,1028.62
2019-03-29T09:26:26.842Z,1028.64
2019-03-29T09:27:26.855Z,1028.63
2019-03-29T09:28:26.877Z,1028.62
2019-03-29T09:29:26.901Z,1028.64
2019-03-29T09:30:26.916Z,1028.65
2019-03-29T09:31:26.942Z,1028.65
2019-03-29T09:32:26.965Z,1028.62
2019-03-29T09:33:26.986Z,1028.64
2019-03-29T09:34:28.807Z,1028.6
2019-03-29T09:35:27.027Z,1028.64
2019-03-29T09:37:27.068Z,1028.64
2019-03-29T09:38:27.093Z,1028.62
2019-03-29T09:39:27.112Z,1028.59
2019-03-29T09:40:27.134Z,1028.61
2019-03-29T09:41:27.159Z,1028.66
2019-03-29T09:42:29.294Z,1028.66
2019-03-29T09:43:27.198Z,1028.66
2019-03-29T09:44:27.225Z,1028.6
2019-03-29T09:45:27.241Z,1028.63
2019-03-29T09:46:27.268Z,1028.65
2019-03-29T09:47:27.285Z,1028.65
2019-03-29T09:48:27.312Z,1028.64
2019-03-29T09:49:27.331Z,1028.59
2019-03-29T09:50:27.353Z,1028.54
2019-03-29T09:51:27.371Z,1028.6
2019-03-29T09:53:27.414Z,1028.56
2019-03-29T09:54:27.441Z,1028.54
2019-03-29T09:55:27.459Z,1028.53
2019-03-29T09:56:37.840Z,1028.5
2019-03-29T09:57:37.080Z,1028.54
2019-03-29T09:58:27.530Z,1028.54
2019-03-29T09:59:27.551Z,1028.53
2019-03-29T10:00:27.574Z,1028.52
2019-03-29T10:01:27.773Z,1028.48
2019-03-29T10:02:27.608Z,1028.47
2019-03-29T10:03:27.634Z,1028.47
2019-03-29T10:04:27.721Z,1028.46
2019-03-29T10:05:30.908Z,1028.47
2019-03-29T10:06:27.698Z,1028.45
2019-03-29T10:07:27.717Z,1028.43
2019-03-29T10:09:27.762Z,1028.43
2019-03-29T10:10:27.787Z,1028.44
2019-03-29T10:11:27.804Z,1028.47
2019-03-29T10:12:42.252Z,1028.46
2019-03-29T10:13:27.902Z,1028.46
2019-03-29T10:14:27.864Z,1028.45
2019-03-29T10:15:27.893Z,1028.47
2019-03-29T10:16:27.907Z,1028.42
2019-03-29T10:17:27.935Z,1028.43
2019-03-29T10:18:27.950Z,1028.43
2019-03-29T10:19:27.971Z,1028.44
2019-03-29T10:20:27.996Z,1028.45
2019-03-29T10:21:28.018Z,1028.43
2019-03-29T10:22:28.040Z,1028.42
2019-03-29T10:24:28.084Z,1028.41
2019-03-29T10:25:28.099Z,1028.4
2019-03-29T10:26:28.125Z,1028.43
2019-03-29T10:27:28.142Z,1028.42
2019-03-29T10:28:28.169Z,1028.36
2019-03-29T10:29:28.190Z,1028.43
2019-03-29T10:30:28.206Z,1028.39
2019-03-29T10:31:32.311Z,1028.39
2019-03-29T10:32:28.254Z,1028.39
2019-03-29T10:33:28.270Z,1028.38
2019-03-29T10:34:28.296Z,1028.36
2019-03-29T10:35:28.314Z,1028.35
2019-03-29T10:36:28.335Z,1028.33
2019-03-29T10:37:28.361Z,1028.3
2019-03-29T10:38:28.377Z,1028.3
2019-03-29T10:39:28.410Z,1028.29
2019-03-29T10:40:28.419Z,1028.26
2019-03-29T10:41:28.447Z,1028.22
2019-03-29T10:42:28.463Z,1028.26
2019-03-29T10:43:28.484Z,1028.19
2019-03-29T10:44:28.506Z,1028.17
2019-03-29T10:45:28.531Z,1028.19
2019-03-29T10:46:28.554Z,1028.16
2019-03-29T10:47:42.281Z,1028.15
2019-03-29T10:48:28.595Z,1028.13
2019-03-29T10:49:28.613Z,1028.15
2019-03-29T10:50:28.635Z,1028.16
2019-03-29T10:51:28.663Z,1028.17
2019-03-29T10:52:28.677Z,1028.15
2019-03-29T10:53:29.074Z,1028.12
2019-03-29T10:54:28.725Z,1028.11
2019-03-29T10:56:34.199Z,1028.09
2019-03-29T10:57:28.787Z,1028.07
2019-03-29T10:58:28.807Z,1028.06
2019-03-29T10:59:28.829Z,1028.02
2019-03-29T11:00:28.855Z,1028.03
2019-03-29T11:01:28.872Z,1027.95
2019-03-29T11:02:28.898Z,1028.01
2019-03-29T11:03:29.049Z,1028.04
2019-03-29T11:04:31.638Z,1028.01
2019-03-29T11:05:28.958Z,1028
2019-03-29T11:06:28.991Z,1027.98
2019-03-29T11:07:29.001Z,1027.98
2019-03-29T11:08:29.063Z,1027.99
2019-03-29T11:09:29.045Z,1027.97
2019-03-29T11:10:29.071Z,1027.99
2019-03-29T11:12:29.114Z,1027.92
2019-03-29T11:13:29.142Z,1027.96
2019-03-29T11:14:29.154Z,1027.93
2019-03-29T11:15:29.176Z,1027.91
2019-03-29T11:16:29.247Z,1027.87
2019-03-29T11:17:29.223Z,1027.88
2019-03-29T11:18:29.245Z,1027.82
2019-03-29T11:19:29.264Z,1027.86
2019-03-29T11:20:29.289Z,1027.82
2019-03-29T11:21:29.314Z,1027.81
2019-03-29T11:22:29.333Z,1027.75
2019-03-29T11:23:29.350Z,1027.81
2019-03-29T11:24:29.438Z,1027.82
2019-03-29T11:25:29.397Z,1027.8
2019-03-29T11:26:29.416Z,1027.78
2019-03-29T11:28:29.457Z,1027.71
2019-03-29T11:29:29.484Z,1027.74
2019-03-29T11:30:41.405Z,1027.69
2019-03-29T11:31:29.523Z,1027.71
2019-03-29T11:32:29.544Z,1027.75
2019-03-29T11:33:29.570Z,1027.74
2019-03-29T11:34:29.587Z,1027.75
2019-03-29T11:35:29.614Z,1027.7
2019-03-29T11:36:29.632Z,1027.7
2019-03-29T11:37:29.655Z,1027.7
2019-03-29T11:38:29.676Z,1027.7
2019-03-29T11:39:29.699Z,1027.71
2019-03-29T11:40:29.717Z,1027.69
2019-03-29T11:41:29.744Z,1027.72
2019-03-29T11:42:29.760Z,1027.68
2019-03-29T11:44:30.307Z,1027.59
2019-03-29T11:45:29.829Z,1027.61
2019-03-29T11:46:29.846Z,1027.61
2019-03-29T11:47:29.873Z,1027.57
2019-03-29T11:48:29.890Z,1027.6
2019-03-29T11:49:29.910Z,1027.62
2019-03-29T11:50:29.974Z,1027.58
2019-03-29T11:51:29.959Z,1027.57
2019-03-29T11:52:30.052Z,1027.52
2019-03-29T11:53:29.998Z,1027.52
2019-03-29T11:54:30.023Z,1027.53
2019-03-29T11:55:30.047Z,1027.51
2019-03-29T11:56:30.068Z,1027.55
2019-03-29T11:57:30.089Z,1027.54
2019-03-29T11:59:30.130Z,1027.48
2019-03-29T12:00:30.156Z,1027.45
2019-03-29T12:01:30.174Z,1027.44
2019-03-29T12:02:31.689Z,1027.41
2019-03-29T12:03:30.224Z,1027.42
2019-03-29T12:04:30.238Z,1027.41
2019-03-29T12:05:30.260Z,1027.42
2019-03-29T12:06:30.283Z,1027.41
2019-03-29T12:07:30.308Z,1027.41
2019-03-29T12:08:30.326Z,1027.43
2019-03-29T12:09:30.353Z,1027.4
2019-03-29T12:10:30.374Z,1027.4
2019-03-29T12:11:30.398Z,1027.38
2019-03-29T12:12:30.420Z,1027.39
2019-03-29T12:13:40.698Z,1027.32
2019-03-29T12:14:30.460Z,1027.35
2019-03-29T12:15:30.485Z,1027.3
2019-03-29T12:16:30.506Z,1027.33
2019-03-29T12:17:30.530Z,1027.27
2019-03-29T12:18:30.546Z,1027.28
2019-03-29T12:19:30.572Z,1027.23
2019-03-29T12:20:30.598Z,1027.24
2019-03-29T12:21:30.617Z,1027.25
2019-03-29T12:22:30.634Z,1027.21
2019-03-29T12:23:30.660Z,1027.25
2019-03-29T12:24:30.678Z,1027.19
2019-03-29T12:25:30.704Z,1027.22
2019-03-29T12:26:30.725Z,1027.2
2019-03-29T12:27:30.747Z,1027.19
2019-03-29T12:28:30.766Z,1027.2
2019-03-29T12:29:30.791Z,1027.17
2019-03-29T12:31:30.835Z,1027.13
2019-03-29T12:32:30.852Z,1027.11
2019-03-29T12:33:30.879Z,1027.14
2019-03-29T12:34:30.900Z,1027.14
2019-03-29T12:35:30.923Z,1027.13
2019-03-29T12:36:30.939Z,1027.11
2019-03-29T12:37:30.961Z,1027.08
2019-03-29T12:38:30.987Z,1027.07
2019-03-29T12:39:31.004Z,1027.08
2019-03-29T12:40:31.030Z,1027.05
2019-03-29T12:41:31.051Z,1027.04
2019-03-29T12:42:31.074Z,1027
2019-03-29T12:43:31.091Z,1026.98
2019-03-29T12:44:31.113Z,1026.92
2019-03-29T12:45:31.138Z,1026.92
2019-03-29T12:47:31.184Z,1026.88
2019-03-29T12:48:31.204Z,1026.85
2019-03-29T12:49:31.229Z,1026.85